All current conditions and weather history are recorded live from Forest Drive in Plover Wisconsin. Plover Weather is a Non Profit volunteer public donation funded site.

Live Plover Skycam  Live Plover Skycam




There are no active watches, warnings or advisories

Nearby METAR Reports

   
KISW - Wisconsin Rapids, WI
Updated: Oct 22 2017 1:54 pm
Overcast  
Overcast  
   Wind: West 4.6 mph
Wind: West 4.6 mph
Temperature: 50°F
Wind Chill: 48.2°F
Dew Point: 48.2°F
Humidity: 94%
Barometer: 29.99 inHg
Clouds: Overcast
Visibility: 10 mi
Cloud details: Overcast 2743 m
KISW 221854Z AUTO 26004KT 10SM OVC090 10/09 A2999 RMK AO2 RAE37 SLP157 P0000 T01000089
KSTE - Stevens Point, WI
Updated: Oct 22 2017 1:55 pm
Light Rain, Overcast  
Light Rain, Overcast  
   Wind: West 3.5 mph
Wind: West 3.5 mph
Temperature: 48.2°F
Wind Chill: 46.4°F
Dew Point: 46.4°F
Humidity: 94%
Barometer: 29.98 inHg
Clouds: Overcast
Visibility: 10 mi
Cloud details: Overcast 2743 m
KSTE 221855Z AUTO 28003KT 10SM -RA OVC090 09/08 A2998 RMK AO2 P0001 T00880083
KMFI - Marshfield, WI
Updated: Oct 22 2017 1:54 pm
Overcast  
Overcast  
   Wind: WNW 6.9 mph
Wind: WNW 6.9 mph
Temperature: 50°F
Wind Chill: 46.4°F
Dew Point: 42.8°F
Humidity: 76%
Barometer: 29.96 inHg
Clouds: Overcast
Visibility: 10 mi
Cloud details: Mostly Cloudy 3048 m,
Overcast 3658 m
KMFI 221854Z AUTO 30006KT 10SM BKN100 OVC120 10/06 A2996 RMK AO2 SLP148 T01000061 TSNO
KISW - Friendship, WI
Updated: Oct 22 2017 1:54 pm
Overcast  
Overcast  
   Wind: West 4.6 mph
Wind: West 4.6 mph
Temperature: 50°F
Wind Chill: 48.2°F
Dew Point: 48.2°F
Humidity: 94%
Barometer: 29.99 inHg
Clouds: Overcast
Visibility: 10 mi
Cloud details: Overcast 2743 m
KISW 221854Z AUTO 26004KT 10SM OVC090 10/09 A2999 RMK AO2 RAE37 SLP157 P0000 T01000089
KSTE - Waupaca, WI
Updated: Oct 22 2017 1:55 pm
Light Rain, Overcast  
Light Rain, Overcast  
   Wind: West 3.5 mph
Wind: West 3.5 mph
Temperature: 48.2°F
Wind Chill: 46.4°F
Dew Point: 46.4°F
Humidity: 94%
Barometer: 29.98 inHg
Clouds: Overcast
Visibility: 10 mi
Cloud details: Overcast 2743 m
KSTE 221855Z AUTO 28003KT 10SM -RA OVC090 09/08 A2998 RMK AO2 P0001 T00880083
KSTE - Custer, WI
Updated: Oct 22 2017 1:55 pm
Light Rain, Overcast  
Light Rain, Overcast  
   Wind: West 3.5 mph
Wind: West 3.5 mph
Temperature: 48.2°F
Wind Chill: 46.4°F
Dew Point: 46.4°F
Humidity: 94%
Barometer: 29.98 inHg
Clouds: Overcast
Visibility: 10 mi
Cloud details: Overcast 2743 m
KSTE 221855Z AUTO 28003KT 10SM -RA OVC090 09/08 A2998 RMK AO2 P0001 T00880083

Script developed by  Saratoga-weather.org Adapted for the template by  Weerstation Leuven

You find our weather info also at:

Weather Underground

Citizen Weather Observer Program (CWOP)

HAMweather, WeatherForYou, PWS Weather

Anything Weather

Equipment we use:

Weather-station
Davis VP2

Weather-program
Weather Display

Weather-server
Dell I7 WorkStation

Provider
FatCow

Davis VP2

Weather Display

Dell I7 WorkStation

FatCow